Time;durP1;ratioP1;P1;durP2;ratioP2;P2;SDS_P1;SDS_P2;PMS_P1;PMS_P2;Temp;Humidity;BMP_temperature;BMP_pressure;BME280_temperature;BME280_humidity;BME280_pressure;Samples;Min_cycle;Max_cycle;Signal;HPM_P1;HPM_P2
2021/04/04 00:01:04;;;;;;;0.77;0.77;;;6.30;99.90;;;;;;4965331;28;20212;-90
2021/04/04 00:03:32;;;;;;;3.30;0.60;;;6.30;99.90;;;;;;4981535;28;20211;-90
2021/04/04 00:05:58;;;;;;;0.37;0.37;;;6.30;99.90;;;;;;4997659;28;20239;-91
2021/04/04 00:08:24;;;;;;;0.20;0.20;;;6.30;99.90;;;;;;4981956;28;20864;-92
2021/04/04 00:10:50;;;;;;;0.57;0.57;;;6.30;99.90;;;;;;4965746;28;20609;-91
2021/04/04 00:13:16;;;;;;;2.53;0.70;;;6.30;99.90;;;;;;4988931;28;20667;-92
2021/04/04 00:15:42;;;;;;;0.50;0.50;;;6.30;99.90;;;;;;4966683;28;20199;-91
2021/04/04 00:18:09;;;;;;;0.43;0.43;;;6.40;99.90;;;;;;4975147;28;20294;-91
2021/04/04 00:20:35;;;;;;;0.43;0.43;;;6.30;99.90;;;;;;4983373;28;20845;-92
2021/04/04 00:23:01;;;;;;;0.20;0.20;;;6.40;99.90;;;;;;4984760;28;20248;-92
2021/04/04 00:25:27;;;;;;;0.40;0.30;;;6.40;99.90;;;;;;4988612;28;20183;-91
2021/04/04 00:27:53;;;;;;;0.83;0.70;;;6.40;99.90;;;;;;5005418;28;20224;-91
2021/04/04 00:30:20;;;;;;;0.73;0.73;;;6.40;99.90;;;;;;4970717;28;20289;-92
2021/04/04 00:32:50;;;;;;;0.60;0.60;;;6.40;99.90;;;;;;4986536;28;20216;-91
2021/04/04 00:35:21;;;;;;;0.80;0.50;;;6.40;99.90;;;;;;4968065;28;20263;-90
2021/04/04 00:37:48;;;;;;;1.80;1.70;;;6.30;99.90;;;;;;4993219;28;20277;-91
2021/04/04 00:40:16;;;;;;;0.73;0.40;;;6.30;99.90;;;;;;4979344;28;20195;-91
2021/04/04 00:42:42;;;;;;;0.40;0.40;;;6.40;99.90;;;;;;4989462;28;20183;-91
2021/04/04 00:45:15;;;;;;;1.10;1.10;;;6.40;99.90;;;;;;4979214;28;20234;-91
2021/04/04 00:47:41;;;;;;;7.40;0.50;;;6.30;99.90;;;;;;4987712;28;20346;-90
2021/04/04 00:50:08;;;;;;;1.63;0.87;;;6.30;99.90;;;;;;5003977;28;20597;-90
2021/04/04 00:52:35;;;;;;;1.47;1.00;;;6.30;99.90;;;;;;4987428;28;20227;-91
2021/04/04 00:55:02;;;;;;;0.93;0.93;;;6.30;99.90;;;;;;5007211;28;20208;-91
2021/04/04 00:57:28;;;;;;;0.60;0.60;;;6.30;99.90;;;;;;5003566;28;20227;-91
2021/04/04 00:59:54;;;;;;;0.20;0.20;;;6.40;99.90;;;;;;4949889;28;20222;-90
2021/04/04 01:02:21;;;;;;;3.50;1.07;;;6.30;99.90;;;;;;4966728;28;20230;-90
2021/04/04 01:04:49;;;;;;;2.10;0.77;;;6.20;99.90;;;;;;4971281;28;20868;-91
2021/04/04 01:07:15;;;;;;;0.77;0.53;;;6.20;99.90;;;;;;4955039;28;20198;-88
2021/04/04 01:09:41;;;;;;;0.27;0.27;;;6.20;99.90;;;;;;4981563;28;20191;-89
2021/04/04 01:12:06;;;;;;;0.83;0.83;;;6.20;99.90;;;;;;4970112;28;20215;-90
2021/04/04 01:14:40;;;;;;;1.27;0.50;;;6.20;99.90;;;;;;5002712;28;20306;-91
2021/04/04 01:17:06;;;;;;;0.30;0.30;;;6.20;99.90;;;;;;4986952;28;20318;-90
2021/04/04 01:20:01;;;;;;;0.60;0.60;;;6.20;99.90;;;;;;4970885;28;20223;-90
2021/04/04 01:22:54;;;;;;;0.40;0.40;;;6.20;99.90;;;;;;4997272;28;20227;-90
2021/04/04 01:25:39;;;;;;;0.30;0.30;;;6.20;99.90;;;;;;5004235;28;20175;-91
2021/04/04 01:28:20;;;;;;;0.40;0.40;;;6.20;99.90;;;;;;4999968;28;20198;-90
2021/04/04 01:30:48;;;;;;;0.20;0.20;;;6.20;99.90;;;;;;4987768;28;20211;-90
2021/04/04 01:33:17;;;;;;;0.63;0.63;;;6.20;99.90;;;;;;4986435;28;20215;-90
2021/04/04 01:35:47;;;;;;;0.73;0.43;;;6.10;99.90;;;;;;4979519;28;20332;-92
2021/04/04 01:38:15;;;;;;;1.23;0.80;;;6.20;99.90;;;;;;5001880;28;20231;-90
2021/04/04 01:40:45;;;;;;;1.77;1.30;;;6.20;99.90;;;;;;5003965;28;20258;-92
2021/04/04 01:43:12;;;;;;;0.60;0.60;;;6.10;99.90;;;;;;5004598;28;21101;-92
2021/04/04 01:45:40;;;;;;;0.43;0.43;;;6.20;99.90;;;;;;5003194;28;20229;-92
2021/04/04 01:48:08;;;;;;;0.30;0.30;;;6.10;99.90;;;;;;4986659;28;20246;-91
2021/04/04 01:50:35;;;;;;;2.87;2.57;;;6.10;99.90;;;;;;4986782;28;20235;-91
2021/04/04 01:53:02;;;;;;;2.40;0.87;;;6.10;99.90;;;;;;5004339;28;20294;-91
2021/04/04 01:55:29;;;;;;;1.57;0.77;;;6.10;99.90;;;;;;4970264;28;20226;-91
2021/04/04 01:57:56;;;;;;;1.03;0.50;;;6.10;99.90;;;;;;4987802;28;20219;-90
2021/04/04 02:00:26;;;;;;;0.40;0.40;;;6.10;99.90;;;;;;5004384;28;20211;-92
2021/04/04 02:02:53;;;;;;;0.90;0.90;;;6.10;99.90;;;;;;5000641;28;20214;-90
2021/04/04 02:05:19;;;;;;;2.03;1.07;;;6.10;99.90;;;;;;4968781;28;20219;-91
2021/04/04 02:07:48;;;;;;;1.50;1.10;;;6.20;99.90;;;;;;4969693;28;20230;-91
2021/04/04 02:10:18;;;;;;;0.53;0.53;;;6.20;99.90;;;;;;5001361;28;20187;-89
2021/04/04 02:12:45;;;;;;;0.90;0.90;;;6.20;99.90;;;;;;5004952;28;20225;-91
2021/04/04 02:15:14;;;;;;;0.93;0.93;;;6.20;99.90;;;;;;4985858;28;20330;-90
2021/04/04 02:17:40;;;;;;;0.80;0.60;;;6.20;99.90;;;;;;5002961;28;20215;-90
2021/04/04 02:20:10;;;;;;;0.73;0.73;;;6.30;99.90;;;;;;4986214;28;20585;-91
2021/04/04 02:22:38;;;;;;;1.13;0.93;;;6.30;99.90;;;;;;4970331;28;20331;-91
2021/04/04 02:25:06;;;;;;;0.87;0.87;;;6.30;99.90;;;;;;4986115;28;20186;-91
2021/04/04 02:27:32;;;;;;;1.00;0.87;;;6.30;99.90;;;;;;4982174;28;20270;-91
2021/04/04 02:29:58;;;;;;;1.63;1.23;;;6.30;99.90;;;;;;4964317;28;20573;-92
2021/04/04 02:32:26;;;;;;;2.13;1.77;;;6.30;99.90;;;;;;4979415;28;20269;-91
2021/04/04 02:34:56;;;;;;;1.20;1.20;;;6.30;99.90;;;;;;4980798;28;20322;-90
2021/04/04 02:37:23;;;;;;;2.43;1.10;;;6.30;99.90;;;;;;4990118;28;20346;-91
2021/04/04 02:40:01;;;;;;;5.17;2.53;;;6.30;99.90;;;;;;5003719;28;21186;-91
2021/04/04 02:42:29;;;;;;;1.23;1.13;;;6.30;99.90;;;;;;5002807;28;20219;-89
2021/04/04 02:44:57;;;;;;;0.70;0.70;;;6.30;99.90;;;;;;4965419;28;20249;-90
2021/04/04 02:47:45;;;;;;;0.83;0.63;;;6.30;99.90;;;;;;5009178;28;20223;-90
2021/04/04 02:50:12;;;;;;;2.53;1.17;;;6.30;99.90;;;;;;4988653;28;20703;-93
2021/04/04 02:52:42;;;;;;;4.93;1.03;;;6.30;99.90;;;;;;4954461;28;20222;-88
2021/04/04 02:55:10;;;;;;;1.27;1.03;;;6.30;99.90;;;;;;5006346;28;20696;-90
2021/04/04 02:57:36;;;;;;;1.33;0.70;;;6.30;99.90;;;;;;4985007;28;20322;-89
2021/04/04 03:00:07;;;;;;;1.53;1.27;;;6.30;99.90;;;;;;4998337;28;20215;-91
2021/04/04 03:02:36;;;;;;;5.70;2.73;;;6.30;99.90;;;;;;4982568;28;20214;-91
2021/04/04 03:05:06;;;;;;;1.43;1.37;;;6.30;99.90;;;;;;4995168;28;20285;-91
2021/04/04 03:07:34;;;;;;;0.40;0.37;;;6.30;99.90;;;;;;5002654;28;20225;-91
2021/04/04 03:10:02;;;;;;;1.20;1.07;;;6.30;99.90;;;;;;4985830;28;20184;-90
2021/04/04 03:12:30;;;;;;;10.37;1.13;;;6.30;99.90;;;;;;4967760;28;20258;-91
2021/04/04 03:14:59;;;;;;;1.17;0.63;;;6.30;99.90;;;;;;5002230;28;20235;-91
2021/04/04 03:17:26;;;;;;;1.20;1.10;;;6.30;99.90;;;;;;4984294;28;20498;-91
2021/04/04 03:19:52;;;;;;;5.13;1.30;;;6.30;99.90;;;;;;4983824;28;20227;-91
2021/04/04 03:22:27;;;;;;;5.10;1.83;;;6.30;99.90;;;;;;4961846;28;20708;-91
2021/04/04 03:24:54;;;;;;;3.23;1.53;;;6.30;99.90;;;;;;5002560;28;20265;-91
2021/04/04 03:27:21;;;;;;;4.00;1.37;;;6.30;99.90;;;;;;5000419;28;20219;-91
2021/04/04 03:29:48;;;;;;;2.63;0.47;;;6.30;99.90;;;;;;5000435;28;20223;-90
2021/04/04 03:32:14;;;;;;;1.70;1.03;;;6.30;99.90;;;;;;4991697;28;20257;-91
2021/04/04 03:34:41;;;;;;;2.87;1.03;;;6.30;99.90;;;;;;4984582;28;20693;-91
2021/04/04 03:37:07;;;;;;;0.50;0.50;;;6.30;99.90;;;;;;4968729;28;20235;-89
2021/04/04 03:39:33;;;;;;;8.53;2.10;;;6.30;99.90;;;;;;4951308;28;20689;-91
2021/04/04 03:42:00;;;;;;;2.00;1.27;;;6.30;99.90;;;;;;4968378;28;20223;-90
2021/04/04 03:44:30;;;;;;;0.87;0.87;;;6.30;99.90;;;;;;4984067;28;20411;-92
2021/04/04 03:46:56;;;;;;;1.90;0.83;;;6.20;99.90;;;;;;4984689;28;20230;-91
2021/04/04 03:49:24;;;;;;;3.73;2.17;;;6.20;99.90;;;;;;5001999;28;20190;-92
2021/04/04 03:51:56;;;;;;;0.67;0.50;;;6.20;99.90;;;;;;4969528;28;20568;-89
2021/04/04 03:54:24;;;;;;;2.03;1.93;;;6.20;99.90;;;;;;4983537;28;20223;-90
2021/04/04 03:56:54;;;;;;;2.40;2.20;;;6.20;99.90;;;;;;4984223;28;20215;-90
2021/04/04 03:59:22;;;;;;;7.90;3.00;;;6.20;99.90;;;;;;4999939;28;20222;-90
2021/04/04 04:01:50;;;;;;;7.70;2.07;;;6.20;99.90;;;;;;4985558;28;20338;-90
2021/04/04 04:04:16;;;;;;;1.10;1.07;;;6.20;99.90;;;;;;4985363;28;20188;-90
2021/04/04 04:06:44;;;;;;;5.17;1.77;;;6.20;99.90;;;;;;4986505;28;20214;-91
2021/04/04 04:09:13;;;;;;;2.30;1.97;;;6.20;99.90;;;;;;4987892;28;20227;-90
2021/04/04 04:11:41;;;;;;;2.07;1.93;;;6.20;99.90;;;;;;5003941;28;20218;-91
2021/04/04 04:14:11;;;;;;;5.17;1.43;;;6.20;99.90;;;;;;4987498;28;20238;-90
2021/04/04 04:16:37;;;;;;;3.43;1.97;;;6.20;99.90;;;;;;4987197;28;20222;-90
2021/04/04 04:19:08;;;;;;;3.13;1.90;;;6.30;99.90;;;;;;4989227;28;20184;-91
2021/04/04 04:21:35;;;;;;;1.23;1.07;;;6.30;99.90;;;;;;5005417;28;20222;-91
2021/04/04 04:24:06;;;;;;;1.80;1.17;;;6.20;99.90;;;;;;4987321;28;20231;-91
2021/04/04 04:26:37;;;;;;;0.60;0.60;;;6.30;99.90;;;;;;4987728;28;20215;-90
2021/04/04 04:29:05;;;;;;;1.10;0.73;;;6.20;99.90;;;;;;4988427;28;20222;-90
2021/04/04 04:31:35;;;;;;;8.70;1.77;;;6.20;99.90;;;;;;5005544;28;20230;-90
2021/04/04 04:34:04;;;;;;;2.00;1.27;;;6.20;99.90;;;;;;4989527;28;20712;-91
2021/04/04 04:36:32;;;;;;;1.80;1.43;;;6.20;99.90;;;;;;4996304;28;20266;-90
2021/04/04 04:38:59;;;;;;;2.47;1.67;;;6.20;99.90;;;;;;4987178;28;20226;-90
2021/04/04 04:41:26;;;;;;;1.13;0.97;;;6.20;99.90;;;;;;4987540;28;20223;-90
2021/04/04 04:43:58;;;;;;;1.43;1.17;;;6.20;99.90;;;;;;4994084;28;20219;-90
2021/04/04 04:46:24;;;;;;;1.10;1.00;;;6.20;99.90;;;;;;5005363;28;20183;-90
2021/04/04 04:48:51;;;;;;;2.00;1.77;;;6.30;99.90;;;;;;4973609;28;20331;-90
2021/04/04 04:51:22;;;;;;;2.20;2.07;;;6.30;99.90;;;;;;5005479;28;20215;-90
2021/04/04 04:53:49;;;;;;;2.47;1.67;;;6.30;99.90;;;;;;4962918;28;20335;-91
2021/04/04 04:56:16;;;;;;;4.70;2.20;;;6.30;99.90;;;;;;4986545;28;20310;-90
2021/04/04 04:58:43;;;;;;;2.97;2.60;;;6.20;99.90;;;;;;4987054;28;20225;-90
2021/04/04 05:01:18;;;;;;;4.77;1.77;;;6.20;99.90;;;;;;4987414;28;20183;-91
2021/04/04 05:03:47;;;;;;;1.77;1.57;;;6.30;99.90;;;;;;5005886;28;20590;-90
2021/04/04 05:06:13;;;;;;;12.77;3.40;;;6.30;99.90;;;;;;4970564;28;20215;-89
2021/04/04 05:08:42;;;;;;;12.73;1.57;;;6.30;99.90;;;;;;4966805;28;20282;-91
2021/04/04 05:11:11;;;;;;;3.27;1.33;;;6.30;99.90;;;;;;4993820;28;20215;-90
2021/04/04 05:13:41;;;;;;;3.17;1.87;;;6.30;99.90;;;;;;5007226;28;20281;-90
2021/04/04 05:16:14;;;;;;;11.37;1.90;;;6.30;99.90;;;;;;5006829;28;20669;-90
2021/04/04 05:18:49;;;;;;;7.20;2.80;;;6.30;99.90;;;;;;4968563;28;20211;-90
2021/04/04 05:21:25;;;;;;;2.43;2.23;;;6.30;99.90;;;;;;4985578;28;20216;-92
2021/04/04 05:23:57;;;;;;;2.87;1.90;;;6.30;99.90;;;;;;4999867;28;20242;-90
2021/04/04 05:26:25;;;;;;;2.60;2.07;;;6.30;99.90;;;;;;5003881;28;20226;-92
2021/04/04 05:28:52;;;;;;;3.93;1.47;;;6.30;99.90;;;;;;4982714;28;20333;-90
2021/04/04 05:31:20;;;;;;;1.70;1.23;;;6.30;99.90;;;;;;4970245;28;20198;-89
2021/04/04 05:33:46;;;;;;;2.27;1.07;;;6.30;99.90;;;;;;4970853;28;20219;-90
2021/04/04 05:36:12;;;;;;;2.03;1.90;;;6.30;99.90;;;;;;4968891;28;20230;-90
2021/04/04 05:38:37;;;;;;;4.60;2.30;;;6.30;99.90;;;;;;4981146;28;20293;-92
2021/04/04 05:41:03;;;;;;;3.87;1.87;;;6.30;99.90;;;;;;4968651;28;20277;-92
2021/04/04 05:43:37;;;;;;;3.07;1.20;;;6.40;99.90;;;;;;4986029;28;20194;-92
2021/04/04 05:46:20;;;;;;;2.63;1.70;;;6.40;99.90;;;;;;5004220;28;20538;-91
2021/04/04 05:49:15;;;;;;;1.20;1.00;;;6.40;99.90;;;;;;5004998;28;20219;-91
2021/04/04 05:52:28;;;;;;;1.60;1.50;;;6.40;99.90;;;;;;5004714;28;20314;-91
2021/04/04 05:55:13;;;;;;;7.00;2.50;;;6.40;99.90;;;;;;4980991;28;20219;-92
2021/04/04 05:57:58;;;;;;;2.37;1.23;;;6.50;99.90;;;;;;4986502;28;20230;-91
2021/04/04 06:00:27;;;;;;;1.47;1.13;;;6.50;99.90;;;;;;5004322;28;21179;-92
2021/04/04 06:03:23;;;;;;;1.67;0.83;;;6.50;99.90;;;;;;4984262;28;20246;-92
2021/04/04 06:06:21;;;;;;;1.50;1.37;;;6.50;99.90;;;;;;4985424;28;20225;-91
2021/04/04 06:09:04;;;;;;;7.27;1.70;;;6.50;99.90;;;;;;5002997;28;20219;-92
2021/04/04 06:12:00;;;;;;;5.30;2.30;;;6.60;99.90;;;;;;4986027;28;20250;-92
2021/04/04 06:14:36;;;;;;;1.20;0.80;;;6.60;99.90;;;;;;4985358;28;20231;-91
2021/04/04 06:17:05;;;;;;;2.30;1.97;;;6.70;99.90;;;;;;4986212;28;20692;-92
2021/04/04 06:19:50;;;;;;;3.80;2.10;;;6.70;99.90;;;;;;5003809;28;21922;-91
2021/04/04 06:22:40;;;;;;;2.30;1.97;;;6.70;99.90;;;;;;5002345;28;20973;-92
2021/04/04 06:25:24;;;;;;;4.53;2.10;;;6.70;99.90;;;;;;5004991;28;20210;-91
2021/04/04 06:28:07;;;;;;;3.73;2.00;;;6.80;99.90;;;;;;5002383;28;20211;-92
2021/04/04 06:30:51;;;;;;;3.33;2.90;;;6.70;99.90;;;;;;4984878;28;20225;-92
2021/04/04 06:33:24;;;;;;;1.97;1.53;;;6.80;99.90;;;;;;4984741;28;20285;-90
2021/04/04 06:36:02;;;;;;;1.43;1.40;;;6.80;99.90;;;;;;4984930;28;20901;-92
2021/04/04 06:38:30;;;;;;;2.73;2.07;;;6.80;99.90;;;;;;5001169;28;20219;-88
2021/04/04 06:41:29;;;;;;;1.10;0.80;;;6.80;99.90;;;;;;4979469;28;20326;-91
2021/04/04 06:44:12;;;;;;;1.27;1.17;;;6.70;99.90;;;;;;5001957;28;20223;-92
2021/04/04 06:47:14;;;;;;;1.57;0.90;;;6.80;99.90;;;;;;4985027;28;20272;-90
2021/04/04 06:49:46;;;;;;;4.77;1.60;;;6.80;99.90;;;;;;5001389;28;20233;-91
2021/04/04 06:52:27;;;;;;;11.93;1.60;;;6.80;99.90;;;;;;4995923;28;20187;-89
2021/04/04 06:55:14;;;;;;;2.83;1.93;;;6.80;99.90;;;;;;5003245;28;20207;-92
2021/04/04 06:57:52;;;;;;;1.13;1.13;;;6.80;99.90;;;;;;5001330;28;20223;-90
2021/04/04 07:00:55;;;;;;;1.00;1.00;;;6.90;99.90;;;;;;5001148;28;20219;-92
2021/04/04 07:03:26;;;;;;;4.57;1.57;;;6.90;99.90;;;;;;5001349;28;20225;-92
2021/04/04 07:06:19;;;;;;;0.70;0.70;;;6.90;99.90;;;;;;4980687;28;20221;-91
2021/04/04 07:09:21;;;;;;;1.00;1.00;;;6.90;99.90;;;;;;4997841;28;20334;-91
2021/04/04 07:12:06;;;;;;;0.60;0.60;;;7.00;99.90;;;;;;4998472;28;20265;-89
2021/04/04 07:15:06;;;;;;;2.73;1.20;;;7.00;99.90;;;;;;4991611;28;20231;-91
2021/04/04 07:18:05;;;;;;;2.70;1.43;;;7.00;99.90;;;;;;5001469;28;20219;-90
2021/04/04 07:20:31;;;;;;;1.63;1.40;;;7.10;99.90;;;;;;4983771;28;20250;-92
2021/04/04 07:23:12;;;;;;;12.47;0.63;;;7.10;99.90;;;;;;5000631;28;20301;-93
2021/04/04 07:25:49;;;;;;;1.50;1.40;;;7.10;99.90;;;;;;5001244;28;21372;-89
2021/04/04 07:28:23;;;;;;;2.70;0.80;;;7.10;99.90;;;;;;4999516;28;20195;-90
2021/04/04 07:30:58;;;;;;;2.53;0.70;;;7.10;99.90;;;;;;4986099;28;20546;-89
2021/04/04 07:33:46;;;;;;;1.80;0.93;;;7.10;99.90;;;;;;4985621;28;20730;-93
2021/04/04 07:36:50;;;;;;;0.33;0.33;;;7.10;99.90;;;;;;4985320;28;20238;-92
2021/04/04 07:39:42;;;;;;;1.73;1.63;;;7.00;99.90;;;;;;4993924;28;20235;-88
2021/04/04 07:42:19;;;;;;;2.70;1.83;;;7.10;99.90;;;;;;5002748;28;20219;-89
2021/04/04 07:44:54;;;;;;;2.37;1.77;;;7.10;99.90;;;;;;4986528;28;20270;-92
2021/04/04 07:47:52;;;;;;;0.50;0.50;;;7.10;99.90;;;;;;4991480;28;20306;-88
2021/04/04 07:50:33;;;;;;;1.43;1.43;;;7.10;99.90;;;;;;4988737;28;21149;-88
2021/04/04 07:53:01;;;;;;;2.63;1.33;;;7.00;99.90;;;;;;4983854;28;20892;-90
2021/04/04 07:55:53;;;;;;;0.50;0.50;;;7.10;99.90;;;;;;4992336;28;20219;-90
2021/04/04 07:59:04;;;;;;;1.70;0.60;;;7.10;99.90;;;;;;5002229;28;20179;-90
2021/04/04 08:02:02;;;;;;;0.67;0.67;;;7.10;99.90;;;;;;4977954;28;20649;-89
2021/04/04 08:04:52;;;;;;;4.70;0.70;;;7.20;99.90;;;;;;4981480;28;20277;-89
2021/04/04 08:07:30;;;;;;;0.50;0.50;;;7.30;99.90;;;;;;4998348;28;20648;-91
2021/04/04 08:10:17;;;;;;;0.50;0.50;;;7.40;99.90;;;;;;4978756;28;20168;-88
2021/04/04 08:13:00;;;;;;;0.60;0.60;;;7.50;99.90;;;;;;5000008;28;20219;-88
2021/04/04 08:15:49;;;;;;;5.83;1.80;;;7.50;99.90;;;;;;5001235;28;20241;-88
2021/04/04 08:18:15;;;;;;;3.80;1.17;;;7.40;99.90;;;;;;4995109;28;20261;-89
2021/04/04 08:20:54;;;;;;;5.93;1.73;;;7.40;99.90;;;;;;5001519;28;20740;-88
2021/04/04 08:23:32;;;;;;;2.03;0.63;;;7.40;99.90;;;;;;5001190;28;20211;-85
2021/04/04 08:26:07;;;;;;;2.20;1.47;;;7.50;99.90;;;;;;4982660;28;20246;-85
2021/04/04 08:28:47;;;;;;;5.70;0.90;;;7.60;99.90;;;;;;4982438;28;20229;-85
2021/04/04 08:31:25;;;;;;;0.70;0.60;;;7.60;99.90;;;;;;4983036;28;20353;-86
2021/04/04 08:33:56;;;;;;;0.40;0.33;;;7.50;99.90;;;;;;4978665;28;20229;-87
2021/04/04 08:36:27;;;;;;;1.90;0.80;;;7.60;99.90;;;;;;4999327;28;20688;-90
2021/04/04 08:38:56;;;;;;;2.13;0.47;;;7.60;99.90;;;;;;4981258;28;20224;-87
2021/04/04 08:41:24;;;;;;;0.80;0.80;;;7.70;99.90;;;;;;4999798;28;20684;-87
2021/04/04 08:43:58;;;;;;;1.70;0.83;;;7.80;99.90;;;;;;4995869;28;20260;-90
2021/04/04 08:46:34;;;;;;;3.90;1.87;;;7.80;99.90;;;;;;4983398;28;20176;-88
2021/04/04 08:49:02;;;;;;;1.20;1.07;;;7.80;99.90;;;;;;4998437;28;20182;-89
2021/04/04 08:51:30;;;;;;;0.83;0.83;;;7.90;99.90;;;;;;5003529;28;20227;-92
2021/04/04 08:53:59;;;;;;;1.00;0.60;;;7.90;99.90;;;;;;4981256;28;20263;-91
2021/04/04 08:56:27;;;;;;;0.80;0.80;;;7.80;99.90;;;;;;4985660;28;20298;-91
2021/04/04 08:58:56;;;;;;;4.07;0.93;;;7.90;99.90;;;;;;4987998;28;20645;-89
2021/04/04 09:01:37;;;;;;;0.90;0.90;;;7.90;99.90;;;;;;4962733;28;20184;-90
2021/04/04 09:04:05;;;;;;;0.93;0.50;;;8.00;99.90;;;;;;4989499;28;20229;-91
2021/04/04 09:06:41;;;;;;;2.17;0.60;;;8.00;99.90;;;;;;4987509;28;20223;-91
2021/04/04 09:09:31;;;;;;;1.07;0.90;;;7.90;99.90;;;;;;4986875;28;21076;-92
2021/04/04 09:11:58;;;;;;;0.83;0.67;;;8.00;99.90;;;;;;5005190;28;20219;-92
2021/04/04 09:14:25;;;;;;;0.93;0.63;;;8.00;99.90;;;;;;4971595;28;20231;-91
2021/04/04 09:17:06;;;;;;;1.60;1.50;;;8.00;99.90;;;;;;4997067;28;20219;-92
2021/04/04 09:19:40;;;;;;;1.30;1.20;;;8.00;99.90;;;;;;4987866;28;20305;-91
2021/04/04 09:22:08;;;;;;;6.23;0.87;;;8.00;99.90;;;;;;4989323;28;20207;-91
2021/04/04 09:25:03;;;;;;;1.60;1.00;;;8.10;99.90;;;;;;4986374;28;20222;-91
2021/04/04 09:27:34;;;;;;;2.77;0.93;;;8.20;99.90;;;;;;4972914;28;20231;-91
2021/04/04 09:30:02;;;;;;;2.27;1.13;;;8.20;99.90;;;;;;4988184;28;20219;-93
2021/04/04 09:32:42;;;;;;;1.03;1.00;;;8.20;99.90;;;;;;4990017;28;20231;-92
2021/04/04 09:35:19;;;;;;;0.67;0.67;;;8.20;99.90;;;;;;5004387;28;20233;-91
2021/04/04 09:37:46;;;;;;;1.27;0.50;;;8.10;99.90;;;;;;4986302;28;20227;-89
2021/04/04 09:40:14;;;;;;;1.53;1.03;;;8.10;99.90;;;;;;4970122;28;20187;-89
2021/04/04 09:42:40;;;;;;;1.40;0.53;;;8.10;99.90;;;;;;4976568;28;20199;-92
2021/04/04 09:45:14;;;;;;;2.53;2.33;;;7.90;99.90;;;;;;4983559;28;20222;-92
2021/04/04 09:47:40;;;;;;;1.47;1.07;;;8.00;99.90;;;;;;4997904;28;20219;-92
2021/04/04 09:50:18;;;;;;;8.23;1.33;;;8.00;99.90;;;;;;4964846;28;20600;-93
2021/04/04 09:52:44;;;;;;;2.53;1.37;;;8.10;99.90;;;;;;4977242;28;20211;-93
2021/04/04 09:55:18;;;;;;;5.57;1.43;;;8.20;99.90;;;;;;5002930;28;20215;-93
2021/04/04 09:57:46;;;;;;;1.37;0.83;;;8.10;99.90;;;;;;4986494;28;20334;-93
2021/04/04 10:00:24;;;;;;;18.33;1.37;;;8.00;99.90;;;;;;4969359;28;20302;-92
2021/04/04 10:02:51;;;;;;;0.47;0.47;;;7.90;99.90;;;;;;4998990;28;20313;-92
2021/04/04 10:05:32;;;;;;;0.60;0.60;;;7.90;99.90;;;;;;4978012;28;20223;-91
2021/04/04 10:08:10;;;;;;;3.17;1.80;;;8.00;99.90;;;;;;4990775;28;20225;-92
2021/04/04 10:10:38;;;;;;;1.50;0.83;;;7.90;99.90;;;;;;5017390;28;20297;-91
2021/04/04 10:13:04;;;;;;;0.50;0.50;;;7.90;99.90;;;;;;4993295;28;20206;-93
2021/04/04 10:15:43;;;;;;;4.03;1.00;;;7.90;99.90;;;;;;4981645;28;20274;-91
2021/04/04 10:18:10;;;;;;;0.60;0.60;;;7.90;99.90;;;;;;5007354;28;20211;-90
2021/04/04 10:20:48;;;;;;;0.50;0.50;;;8.00;99.90;;;;;;5001584;28;20230;-92
2021/04/04 10:23:15;;;;;;;0.50;0.50;;;8.10;99.90;;;;;;4987693;28;20217;-92
2021/04/04 10:26:18;;;;;;;3.57;0.77;;;8.00;99.90;;;;;;4987282;28;20227;-90
2021/04/04 10:28:55;;;;;;;1.43;1.03;;;8.00;99.90;;;;;;4961310;28;20220;-91
2021/04/04 10:31:23;;;;;;;1.03;1.03;;;8.20;99.90;;;;;;4996054;28;20203;-90
2021/04/04 10:34:16;;;;;;;0.63;0.50;;;8.30;99.90;;;;;;4986884;28;20338;-90
2021/04/04 10:36:41;;;;;;;0.50;0.50;;;8.40;99.90;;;;;;4970223;28;20246;-92
2021/04/04 10:39:20;;;;;;;1.57;1.47;;;8.40;99.90;;;;;;4986374;28;20211;-91
2021/04/04 10:41:47;;;;;;;6.13;2.43;;;8.50;99.90;;;;;;5004371;28;20751;-90
2021/04/04 10:44:23;;;;;;;2.20;1.03;;;8.60;99.90;;;;;;4985628;28;20223;-90
2021/04/04 10:46:49;;;;;;;1.47;0.97;;;8.60;99.90;;;;;;4985185;28;20222;-91
2021/04/04 10:49:16;;;;;;;1.13;1.07;;;8.50;99.90;;;;;;4968478;28;20230;-89
2021/04/04 10:51:44;;;;;;;1.77;1.37;;;8.50;99.90;;;;;;4996368;28;20195;-91
2021/04/04 10:54:10;;;;;;;3.80;1.20;;;8.50;99.90;;;;;;4968404;28;20301;-90
2021/04/04 10:56:36;;;;;;;2.10;1.83;;;8.50;99.90;;;;;;4968600;28;20226;-91
2021/04/04 10:59:04;;;;;;;3.37;1.70;;;8.50;99.90;;;;;;5002168;28;20223;-91
2021/04/04 11:01:33;;;;;;;6.87;1.60;;;8.60;99.90;;;;;;4982974;28;20229;-91
2021/04/04 11:04:00;;;;;;;0.93;0.83;;;8.50;99.90;;;;;;4971762;28;20192;-90
2021/04/04 11:06:28;;;;;;;0.63;0.37;;;8.60;99.90;;;;;;4971193;28;20242;-89
2021/04/04 11:08:54;;;;;;;1.43;1.33;;;8.60;99.90;;;;;;4979798;28;20231;-92
2021/04/04 11:11:21;;;;;;;1.23;0.80;;;8.50;99.90;;;;;;4985056;28;20219;-91
2021/04/04 11:13:52;;;;;;;8.07;1.37;;;8.50;99.90;;;;;;4984907;28;20211;-90
2021/04/04 11:16:20;;;;;;;3.30;1.30;;;8.50;99.90;;;;;;4985442;28;20184;-92
2021/04/04 11:18:53;;;;;;;1.80;0.70;;;8.50;99.90;;;;;;4996597;28;20807;-92
2021/04/04 11:21:34;;;;;;;8.70;1.83;;;8.40;99.90;;;;;;4984658;28;20211;-92
2021/04/04 11:23:59;;;;;;;7.80;1.60;;;8.40;99.90;;;;;;4983573;28;20226;-93
2021/04/04 11:26:29;;;;;;;2.07;1.67;;;8.40;99.90;;;;;;4960377;28;20272;-91
2021/04/04 11:29:15;;;;;;;2.40;1.03;;;8.40;99.90;;;;;;4984487;28;21250;-93
2021/04/04 11:31:50;;;;;;;1.07;0.97;;;8.50;99.90;;;;;;4992083;28;20226;-91
2021/04/04 11:34:39;;;;;;;7.57;2.50;;;8.50;99.90;;;;;;4984314;28;20243;-91
2021/04/04 11:37:12;;;;;;;3.73;1.63;;;8.70;99.90;;;;;;5004139;28;20262;-92
2021/04/04 11:39:39;;;;;;;2.43;1.23;;;8.70;99.90;;;;;;5001006;28;20281;-89
2021/04/04 11:42:06;;;;;;;1.57;0.67;;;8.70;99.90;;;;;;5002107;28;20223;-91
2021/04/04 11:44:39;;;;;;;6.30;2.23;;;8.60;99.90;;;;;;4983349;28;20222;-92
2021/04/04 11:47:25;;;;;;;5.10;1.07;;;8.50;99.90;;;;;;4998717;28;20348;-90
2021/04/04 11:49:57;;;;;;;0.73;0.73;;;8.50;99.90;;;;;;4974403;28;20219;-91
2021/04/04 11:52:23;;;;;;;0.90;0.90;;;8.50;99.90;;;;;;4995198;28;20246;-91
2021/04/04 11:54:50;;;;;;;5.13;2.10;;;8.50;99.90;;;;;;4998482;28;20222;-91
2021/04/04 11:57:30;;;;;;;2.93;1.80;;;8.70;99.90;;;;;;4979080;28;20290;-91
2021/04/04 12:00:04;;;;;;;2.13;1.90;;;8.90;99.90;;;;;;4991657;28;20261;-91
2021/04/04 12:02:31;;;;;;;4.83;1.27;;;9.10;99.90;;;;;;4981686;28;20219;-91
2021/04/04 12:05:14;;;;;;;1.10;0.90;;;9.00;99.90;;;;;;4968272;28;20214;-91
2021/04/04 12:07:45;;;;;;;3.37;2.30;;;8.70;99.90;;;;;;5001444;28;20215;-91
2021/04/04 12:10:13;;;;;;;6.27;2.80;;;8.80;99.90;;;;;;4985526;28;20191;-90
2021/04/04 12:12:39;;;;;;;1.17;0.93;;;8.90;99.90;;;;;;4995079;28;20744;-92
2021/04/04 12:15:06;;;;;;;0.73;0.73;;;8.80;99.90;;;;;;4984182;28;20227;-91
2021/04/04 12:17:32;;;;;;;9.40;1.77;;;8.80;99.90;;;;;;5001484;28;20250;-92
2021/04/04 12:19:59;;;;;;;1.80;1.33;;;8.70;99.90;;;;;;4971241;28;20277;-92
2021/04/04 12:22:39;;;;;;;12.30;1.07;;;8.80;99.90;;;;;;4990048;28;20195;-89
2021/04/04 12:25:10;;;;;;;2.60;2.40;;;8.80;99.90;;;;;;4991928;28;20249;-92
2021/04/04 12:27:38;;;;;;;2.73;1.40;;;8.90;99.90;;;;;;5006441;28;20293;-91
2021/04/04 12:30:05;;;;;;;4.17;1.43;;;8.90;99.90;;;;;;4989038;28;20250;-90
2021/04/04 12:32:33;;;;;;;5.07;1.87;;;8.80;99.90;;;;;;4973151;28;20305;-91
2021/04/04 12:35:04;;;;;;;2.23;1.70;;;8.80;99.90;;;;;;4981850;28;20255;-92
2021/04/04 12:37:33;;;;;;;1.53;1.43;;;8.70;99.90;;;;;;4982382;28;20231;-92
2021/04/04 12:40:03;;;;;;;2.90;1.70;;;8.70;99.90;;;;;;5003941;28;20192;-92
2021/04/04 12:42:33;;;;;;;18.50;1.50;;;8.70;99.90;;;;;;4984857;28;20220;-91
2021/04/04 12:45:09;;;;;;;2.37;1.70;;;8.50;99.90;;;;;;4985301;28;20315;-89
2021/04/04 12:47:38;;;;;;;5.47;2.70;;;8.50;99.90;;;;;;4985480;28;20220;-90
2021/04/04 12:50:11;;;;;;;1.40;1.30;;;8.50;99.90;;;;;;4985244;28;20682;-90
2021/04/04 12:52:44;;;;;;;4.37;1.40;;;8.50;99.90;;;;;;4985126;28;20724;-90
2021/04/04 12:55:18;;;;;;;4.37;1.63;;;8.50;99.90;;;;;;4986082;28;20207;-88
2021/04/04 12:57:46;;;;;;;2.50;2.30;;;8.50;99.90;;;;;;5001032;28;21110;-88
2021/04/04 13:00:19;;;;;;;2.07;1.87;;;8.80;99.90;;;;;;4984318;28;20216;-89
2021/04/04 13:03:00;;;;;;;4.63;1.50;;;8.90;99.90;;;;;;4983042;28;20212;-88
2021/04/04 13:05:33;;;;;;;7.07;1.73;;;9.00;99.90;;;;;;4984258;28;20625;-87
2021/04/04 13:07:58;;;;;;;2.93;2.30;;;9.20;99.90;;;;;;4984894;28;20216;-88
2021/04/04 13:10:24;;;;;;;1.63;1.30;;;9.40;99.90;;;;;;4968312;28;20220;-90
2021/04/04 13:12:50;;;;;;;4.43;2.27;;;9.50;99.90;;;;;;4969096;28;20235;-89
2021/04/04 13:15:28;;;;;;;2.47;1.73;;;9.30;99.90;;;;;;4983530;28;20254;-90
2021/04/04 13:17:54;;;;;;;7.00;2.30;;;9.30;99.90;;;;;;4981551;28;20219;-91
2021/04/04 13:20:22;;;;;;;5.77;3.07;;;9.30;99.90;;;;;;4966048;28;20231;-91
2021/04/04 13:22:50;;;;;;;5.93;2.80;;;9.60;99.90;;;;;;4997016;28;20252;-91
2021/04/04 13:25:16;;;;;;;7.00;3.13;;;9.80;99.90;;;;;;4981492;28;20192;-91
2021/04/04 13:27:45;;;;;;;8.67;2.17;;;9.90;99.90;;;;;;4969709;28;20199;-90